sensor_id;sensor_type;location;lat;lon;timestamp;temperature;humidity
39103;DHT22;24847;48.218;16.414;2023-07-31T00:04:32;19.60;99.90
39103;DHT22;24847;48.218;16.414;2023-07-31T00:09:37;19.80;99.90
39103;DHT22;24847;48.218;16.414;2023-07-31T00:14:39;19.70;99.90
39103;DHT22;24847;48.218;16.414;2023-07-31T00:19:41;19.50;99.90
39103;DHT22;24847;48.218;16.414;2023-07-31T00:24:45;19.40;99.90
39103;DHT22;24847;48.218;16.414;2023-07-31T00:29:47;19.40;99.90
39103;DHT22;24847;48.218;16.414;2023-07-31T00:34:50;19.60;99.90
39103;DHT22;24847;48.218;16.414;2023-07-31T00:39:54;19.50;99.90
39103;DHT22;24847;48.218;16.414;2023-07-31T00:44:56;19.20;99.90
39103;DHT22;24847;48.218;16.414;2023-07-31T00:49:58;19.40;99.90
39103;DHT22;24847;48.218;16.414;2023-07-31T00:55:02;19.20;99.90
39103;DHT22;24847;48.218;16.414;2023-07-31T01:00:05;19.50;99.90
39103;DHT22;24847;48.218;16.414;2023-07-31T01:05:09;19.40;99.90
39103;DHT22;24847;48.218;16.414;2023-07-31T01:10:16;19.30;99.90
39103;DHT22;24847;48.218;16.414;2023-07-31T01:15:22;19.20;99.90
39103;DHT22;24847;48.218;16.414;2023-07-31T01:20:26;19.40;99.90
39103;DHT22;24847;48.218;16.414;2023-07-31T01:25:50;19.20;99.90
39103;DHT22;24847;48.218;16.414;2023-07-31T01:31:00;19.10;99.90
39103;DHT22;24847;48.218;16.414;2023-07-31T01:36:04;19.10;99.90
39103;DHT22;24847;48.218;16.414;2023-07-31T01:41:08;19.10;99.90
39103;DHT22;24847;48.218;16.414;2023-07-31T01:46:11;18.90;99.90
39103;DHT22;24847;48.218;16.414;2023-07-31T01:51:13;18.90;99.90
39103;DHT22;24847;48.218;16.414;2023-07-31T01:56:16;19.00;99.90
39103;DHT22;24847;48.218;16.414;2023-07-31T02:01:19;18.90;99.90
39103;DHT22;24847;48.218;16.414;2023-07-31T02:06:21;19.10;99.90
39103;DHT22;24847;48.218;16.414;2023-07-31T02:11:25;18.90;99.90
39103;DHT22;24847;48.218;16.414;2023-07-31T02:16:27;18.90;99.90
39103;DHT22;24847;48.218;16.414;2023-07-31T02:21:29;19.00;99.90
39103;DHT22;24847;48.218;16.414;2023-07-31T02:26:33;19.10;99.90
39103;DHT22;24847;48.218;16.414;2023-07-31T02:31:35;19.40;99.90
39103;DHT22;24847;48.218;16.414;2023-07-31T02:36:37;19.30;99.90
39103;DHT22;24847;48.218;16.414;2023-07-31T02:41:41;19.20;99.90
39103;DHT22;24847;48.218;16.414;2023-07-31T02:46:43;19.00;99.90
39103;DHT22;24847;48.218;16.414;2023-07-31T02:51:45;19.00;99.90
39103;DHT22;24847;48.218;16.414;2023-07-31T02:56:49;19.40;99.90
39103;DHT22;24847;48.218;16.414;2023-07-31T03:01:51;19.30;99.90
39103;DHT22;24847;48.218;16.414;2023-07-31T03:06:54;19.40;99.90
39103;DHT22;24847;48.218;16.414;2023-07-31T03:11:57;19.20;99.90
39103;DHT22;24847;48.218;16.414;2023-07-31T03:17:00;19.00;99.90
39103;DHT22;24847;48.218;16.414;2023-07-31T03:22:02;18.90;99.90
39103;DHT22;24847;48.218;16.414;2023-07-31T03:27:07;18.90;99.90
39103;DHT22;24847;48.218;16.414;2023-07-31T03:32:09;19.20;99.90
39103;DHT22;24847;48.218;16.414;2023-07-31T03:37:11;19.10;99.90
39103;DHT22;24847;48.218;16.414;2023-07-31T03:42:15;18.90;99.90
39103;DHT22;24847;48.218;16.414;2023-07-31T03:47:17;19.00;99.90
39103;DHT22;24847;48.218;16.414;2023-07-31T03:52:19;19.10;99.90
39103;DHT22;24847;48.218;16.414;2023-07-31T03:57:23;19.00;99.90
39103;DHT22;24847;48.218;16.414;2023-07-31T04:02:25;19.10;99.90
39103;DHT22;24847;48.218;16.414;2023-07-31T04:07:28;19.20;99.90
39103;DHT22;24847;48.218;16.414;2023-07-31T04:12:31;19.40;99.90
39103;DHT22;24847;48.218;16.414;2023-07-31T04:17:34;19.40;99.90
39103;DHT22;24847;48.218;16.414;2023-07-31T04:22:36;19.50;99.90
39103;DHT22;24847;48.218;16.414;2023-07-31T04:27:41;19.50;99.90
39103;DHT22;24847;48.218;16.414;2023-07-31T04:32:43;19.40;99.90
39103;DHT22;24847;48.218;16.414;2023-07-31T04:37:46;19.20;99.90
39103;DHT22;24847;48.218;16.414;2023-07-31T04:42:50;19.20;99.90
39103;DHT22;24847;48.218;16.414;2023-07-31T04:47:53;19.10;99.90
39103;DHT22;24847;48.218;16.414;2023-07-31T04:52:55;19.40;99.90
39103;DHT22;24847;48.218;16.414;2023-07-31T04:57:59;19.20;99.90
39103;DHT22;24847;48.218;16.414;2023-07-31T05:03:01;19.50;99.90
39103;DHT22;24847;48.218;16.414;2023-07-31T05:08:04;19.40;99.90
39103;DHT22;24847;48.218;16.414;2023-07-31T05:13:07;19.60;99.90
39103;DHT22;24847;48.218;16.414;2023-07-31T05:18:10;19.70;99.90
39103;DHT22;24847;48.218;16.414;2023-07-31T05:23:12;20.50;99.90
39103;DHT22;24847;48.218;16.414;2023-07-31T05:28:15;20.60;99.90
39103;DHT22;24847;48.218;16.414;2023-07-31T05:33:36;21.10;99.90
39103;DHT22;24847;48.218;16.414;2023-07-31T05:38:38;20.90;99.90
39103;DHT22;24847;48.218;16.414;2023-07-31T05:43:42;20.60;99.90
39103;DHT22;24847;48.218;16.414;2023-07-31T05:48:44;20.80;99.90
39103;DHT22;24847;48.218;16.414;2023-07-31T05:53:47;21.40;99.90
39103;DHT22;24847;48.218;16.414;2023-07-31T05:58:50;21.70;99.90
39103;DHT22;24847;48.218;16.414;2023-07-31T06:03:53;21.70;99.90
39103;DHT22;24847;48.218;16.414;2023-07-31T06:08:55;21.90;99.90
39103;DHT22;24847;48.218;16.414;2023-07-31T06:13:59;22.00;99.90
39103;DHT22;24847;48.218;16.414;2023-07-31T06:19:02;22.10;99.90
39103;DHT22;24847;48.218;16.414;2023-07-31T06:24:04;21.90;99.90
39103;DHT22;24847;48.218;16.414;2023-07-31T06:29:10;21.50;99.90
39103;DHT22;24847;48.218;16.414;2023-07-31T06:34:13;21.70;99.90
39103;DHT22;24847;48.218;16.414;2023-07-31T06:39:15;22.10;99.90
39103;DHT22;24847;48.218;16.414;2023-07-31T06:44:18;22.10;99.90
39103;DHT22;24847;48.218;16.414;2023-07-31T06:49:21;22.20;99.90
39103;DHT22;24847;48.218;16.414;2023-07-31T06:54:23;23.30;99.90
39103;DHT22;24847;48.218;16.414;2023-07-31T06:59:26;24.00;99.90
39103;DHT22;24847;48.218;16.414;2023-07-31T07:04:29;23.10;99.90
39103;DHT22;24847;48.218;16.414;2023-07-31T07:09:31;23.90;99.90
39103;DHT22;24847;48.218;16.414;2023-07-31T07:14:35;24.40;99.90
39103;DHT22;24847;48.218;16.414;2023-07-31T07:19:40;25.00;99.90
39103;DHT22;24847;48.218;16.414;2023-07-31T07:24:43;24.70;99.90
39103;DHT22;24847;48.218;16.414;2023-07-31T07:29:47;24.70;99.90
39103;DHT22;24847;48.218;16.414;2023-07-31T07:34:52;25.00;99.90
39103;DHT22;24847;48.218;16.414;2023-07-31T07:39:54;24.50;99.90
39103;DHT22;24847;48.218;16.414;2023-07-31T07:44:59;25.10;99.90
39103;DHT22;24847;48.218;16.414;2023-07-31T07:50:01;25.00;99.90
39103;DHT22;24847;48.218;16.414;2023-07-31T07:55:04;24.60;99.90
39103;DHT22;24847;48.218;16.414;2023-07-31T08:00:09;25.50;99.90
39103;DHT22;24847;48.218;16.414;2023-07-31T08:05:12;25.60;99.90
39103;DHT22;24847;48.218;16.414;2023-07-31T08:10:14;25.40;99.90
39103;DHT22;24847;48.218;16.414;2023-07-31T08:15:18;25.90;99.90
39103;DHT22;24847;48.218;16.414;2023-07-31T08:20:20;26.10;99.90
39103;DHT22;24847;48.218;16.414;2023-07-31T08:25:22;26.30;99.90
39103;DHT22;24847;48.218;16.414;2023-07-31T08:30:26;26.10;99.90
39103;DHT22;24847;48.218;16.414;2023-07-31T08:35:28;26.00;99.90
39103;DHT22;24847;48.218;16.414;2023-07-31T08:40:30;26.50;99.90
39103;DHT22;24847;48.218;16.414;2023-07-31T08:45:34;26.50;99.90
39103;DHT22;24847;48.218;16.414;2023-07-31T08:50:37;28.10;99.90
39103;DHT22;24847;48.218;16.414;2023-07-31T08:55:40;27.40;99.90
39103;DHT22;24847;48.218;16.414;2023-07-31T09:00:46;27.90;99.70
39103;DHT22;24847;48.218;16.414;2023-07-31T09:05:50;26.60;99.40
39103;DHT22;24847;48.218;16.414;2023-07-31T09:10:52;26.40;99.90
39103;DHT22;24847;48.218;16.414;2023-07-31T09:15:57;26.50;99.90
39103;DHT22;24847;48.218;16.414;2023-07-31T09:21:04;26.60;99.90
39103;DHT22;24847;48.218;16.414;2023-07-31T09:26:06;26.50;99.50
39103;DHT22;24847;48.218;16.414;2023-07-31T09:31:10;25.60;99.90
39103;DHT22;24847;48.218;16.414;2023-07-31T09:36:12;24.80;99.90
39103;DHT22;24847;48.218;16.414;2023-07-31T09:41:14;26.00;99.90
39103;DHT22;24847;48.218;16.414;2023-07-31T09:46:20;26.80;99.50
39103;DHT22;24847;48.218;16.414;2023-07-31T09:51:26;26.80;99.50
39103;DHT22;24847;48.218;16.414;2023-07-31T09:56:29;26.70;99.90
39103;DHT22;24847;48.218;16.414;2023-07-31T10:01:35;27.00;99.90
39103;DHT22;24847;48.218;16.414;2023-07-31T10:06:38;26.80;99.90
39103;DHT22;24847;48.218;16.414;2023-07-31T10:11:42;26.30;99.90
39103;DHT22;24847;48.218;16.414;2023-07-31T10:16:53;26.50;99.90
39103;DHT22;24847;48.218;16.414;2023-07-31T10:21:57;26.00;99.90
39103;DHT22;24847;48.218;16.414;2023-07-31T10:27:00;25.10;99.90
39103;DHT22;24847;48.218;16.414;2023-07-31T10:32:06;25.30;99.90
39103;DHT22;24847;48.218;16.414;2023-07-31T10:37:21;25.70;99.90
39103;DHT22;24847;48.218;16.414;2023-07-31T10:42:29;26.00;99.90
39103;DHT22;24847;48.218;16.414;2023-07-31T10:47:38;26.20;99.90
39103;DHT22;24847;48.218;16.414;2023-07-31T10:52:44;26.00;99.90
39103;DHT22;24847;48.218;16.414;2023-07-31T10:57:49;25.90;99.90
39103;DHT22;24847;48.218;16.414;2023-07-31T11:03:03;26.10;99.90
39103;DHT22;24847;48.218;16.414;2023-07-31T11:08:11;26.20;99.90
39103;DHT22;24847;48.218;16.414;2023-07-31T11:13:17;26.20;99.90
39103;DHT22;24847;48.218;16.414;2023-07-31T11:18:21;26.40;99.90
39103;DHT22;24847;48.218;16.414;2023-07-31T11:23:24;26.50;99.90
39103;DHT22;24847;48.218;16.414;2023-07-31T11:28:31;26.20;99.90
39103;DHT22;24847;48.218;16.414;2023-07-31T11:33:38;26.40;99.80
39103;DHT22;24847;48.218;16.414;2023-07-31T11:38:40;26.10;99.90
39103;DHT22;24847;48.218;16.414;2023-07-31T11:43:42;25.90;99.40
39103;DHT22;24847;48.218;16.414;2023-07-31T11:48:46;26.30;99.60
39103;DHT22;24847;48.218;16.414;2023-07-31T11:53:52;26.10;99.20
39103;DHT22;24847;48.218;16.414;2023-07-31T11:58:57;26.40;99.20
39103;DHT22;24847;48.218;16.414;2023-07-31T12:04:04;26.20;99.70
39103;DHT22;24847;48.218;16.414;2023-07-31T12:09:07;26.30;99.90
39103;DHT22;24847;48.218;16.414;2023-07-31T12:14:19;26.10;99.90
39103;DHT22;24847;48.218;16.414;2023-07-31T12:19:25;26.10;99.80
39103;DHT22;24847;48.218;16.414;2023-07-31T12:24:30;26.20;98.40
39103;DHT22;24847;48.218;16.414;2023-07-31T12:29:36;26.00;98.50
39103;DHT22;24847;48.218;16.414;2023-07-31T12:34:43;25.90;98.40
39103;DHT22;24847;48.218;16.414;2023-07-31T12:39:45;25.90;98.40
39103;DHT22;24847;48.218;16.414;2023-07-31T12:44:48;25.80;98.60
39103;DHT22;24847;48.218;16.414;2023-07-31T12:49:51;25.90;99.20
39103;DHT22;24847;48.218;16.414;2023-07-31T12:54:53;25.90;99.30
39103;DHT22;24847;48.218;16.414;2023-07-31T12:59:56;25.90;99.90
39103;DHT22;24847;48.218;16.414;2023-07-31T13:04:59;25.80;99.90
39103;DHT22;24847;48.218;16.414;2023-07-31T13:10:03;25.80;99.90
39103;DHT22;24847;48.218;16.414;2023-07-31T13:15:06;25.70;99.90
39103;DHT22;24847;48.218;16.414;2023-07-31T13:20:11;26.00;99.70
39103;DHT22;24847;48.218;16.414;2023-07-31T13:25:13;25.90;99.10
39103;DHT22;24847;48.218;16.414;2023-07-31T13:30:16;25.80;99.20
39103;DHT22;24847;48.218;16.414;2023-07-31T13:35:19;25.90;99.90
39103;DHT22;24847;48.218;16.414;2023-07-31T13:40:22;26.10;99.10
39103;DHT22;24847;48.218;16.414;2023-07-31T13:45:24;26.10;99.40
39103;DHT22;24847;48.218;16.414;2023-07-31T13:50:28;26.10;99.40
39103;DHT22;24847;48.218;16.414;2023-07-31T13:55:30;26.10;98.50
39103;DHT22;24847;48.218;16.414;2023-07-31T14:00:32;26.00;98.40
39103;DHT22;24847;48.218;16.414;2023-07-31T14:05:37;26.20;99.00
39103;DHT22;24847;48.218;16.414;2023-07-31T14:10:39;26.40;99.10
39103;DHT22;24847;48.218;16.414;2023-07-31T14:15:42;26.30;99.10
39103;DHT22;24847;48.218;16.414;2023-07-31T14:20:46;26.30;98.20
39103;DHT22;24847;48.218;16.414;2023-07-31T14:25:48;26.20;97.80
39103;DHT22;24847;48.218;16.414;2023-07-31T14:30:50;26.20;97.80
39103;DHT22;24847;48.218;16.414;2023-07-31T14:35:54;26.00;97.40
39103;DHT22;24847;48.218;16.414;2023-07-31T14:40:56;26.10;97.50
39103;DHT22;24847;48.218;16.414;2023-07-31T14:45:58;26.50;97.60
39103;DHT22;24847;48.218;16.414;2023-07-31T14:51:02;26.60;96.50
39103;DHT22;24847;48.218;16.414;2023-07-31T14:56:04;26.60;96.70
39103;DHT22;24847;48.218;16.414;2023-07-31T15:01:06;26.70;97.20
39103;DHT22;24847;48.218;16.414;2023-07-31T15:06:10;26.70;95.90
39103;DHT22;24847;48.218;16.414;2023-07-31T15:11:14;26.50;96.10
39103;DHT22;24847;48.218;16.414;2023-07-31T15:16:17;26.50;96.30
39103;DHT22;24847;48.218;16.414;2023-07-31T15:21:22;26.60;96.20
39103;DHT22;24847;48.218;16.414;2023-07-31T15:26:24;26.60;95.70
39103;DHT22;24847;48.218;16.414;2023-07-31T15:31:27;26.70;95.20
39103;DHT22;24847;48.218;16.414;2023-07-31T15:36:31;26.80;96.50
39103;DHT22;24847;48.218;16.414;2023-07-31T15:41:33;26.70;96.10
39103;DHT22;24847;48.218;16.414;2023-07-31T15:46:35;26.70;96.10
39103;DHT22;24847;48.218;16.414;2023-07-31T15:51:39;26.60;95.70
39103;DHT22;24847;48.218;16.414;2023-07-31T15:56:42;26.70;95.60
39103;DHT22;24847;48.218;16.414;2023-07-31T16:01:44;26.70;95.50
39103;DHT22;24847;48.218;16.414;2023-07-31T16:06:48;26.70;95.80
39103;DHT22;24847;48.218;16.414;2023-07-31T16:11:51;26.70;95.90
39103;DHT22;24847;48.218;16.414;2023-07-31T16:16:53;26.70;96.20
39103;DHT22;24847;48.218;16.414;2023-07-31T16:21:56;26.50;96.20
39103;DHT22;24847;48.218;16.414;2023-07-31T16:26:59;26.50;96.70
39103;DHT22;24847;48.218;16.414;2023-07-31T16:32:01;26.60;96.90
39103;DHT22;24847;48.218;16.414;2023-07-31T16:37:05;26.50;96.70
39103;DHT22;24847;48.218;16.414;2023-07-31T16:42:08;26.50;97.40
39103;DHT22;24847;48.218;16.414;2023-07-31T16:47:11;26.50;97.70
39103;DHT22;24847;48.218;16.414;2023-07-31T16:52:15;26.50;97.90
39103;DHT22;24847;48.218;16.414;2023-07-31T16:57:17;26.50;99.00
39103;DHT22;24847;48.218;16.414;2023-07-31T17:02:20;26.60;98.70
39103;DHT22;24847;48.218;16.414;2023-07-31T17:07:24;26.40;98.80
39103;DHT22;24847;48.218;16.414;2023-07-31T17:12:26;26.40;99.50
39103;DHT22;24847;48.218;16.414;2023-07-31T17:17:28;26.40;99.90
39103;DHT22;24847;48.218;16.414;2023-07-31T17:22:32;26.30;99.90
39103;DHT22;24847;48.218;16.414;2023-07-31T17:27:34;26.10;99.90
39103;DHT22;24847;48.218;16.414;2023-07-31T17:32:37;25.90;99.90
39103;DHT22;24847;48.218;16.414;2023-07-31T17:37:42;25.80;99.90
39103;DHT22;24847;48.218;16.414;2023-07-31T17:42:45;25.90;99.90
39103;DHT22;24847;48.218;16.414;2023-07-31T17:47:48;25.70;99.90
39103;DHT22;24847;48.218;16.414;2023-07-31T17:52:53;25.70;99.90
39103;DHT22;24847;48.218;16.414;2023-07-31T17:57:56;25.70;99.90
39103;DHT22;24847;48.218;16.414;2023-07-31T18:02:59;25.60;99.90
39103;DHT22;24847;48.218;16.414;2023-07-31T18:08:04;25.60;99.90
39103;DHT22;24847;48.218;16.414;2023-07-31T18:13:08;25.60;99.90
39103;DHT22;24847;48.218;16.414;2023-07-31T18:18:11;25.50;99.90
39103;DHT22;24847;48.218;16.414;2023-07-31T18:23:19;25.40;99.90
39103;DHT22;24847;48.218;16.414;2023-07-31T18:28:22;25.30;99.90
39103;DHT22;24847;48.218;16.414;2023-07-31T18:33:33;25.20;99.90
39103;DHT22;24847;48.218;16.414;2023-07-31T18:38:37;25.20;99.90
39103;DHT22;24847;48.218;16.414;2023-07-31T18:43:40;25.10;99.90
39103;DHT22;24847;48.218;16.414;2023-07-31T18:48:46;25.10;99.90
39103;DHT22;24847;48.218;16.414;2023-07-31T18:53:50;25.00;99.90
39103;DHT22;24847;48.218;16.414;2023-07-31T18:58:54;25.00;99.90
39103;DHT22;24847;48.218;16.414;2023-07-31T19:03:58;24.80;99.90
39103;DHT22;24847;48.218;16.414;2023-07-31T19:09:04;24.90;99.90
39103;DHT22;24847;48.218;16.414;2023-07-31T19:14:08;24.90;99.90
39103;DHT22;24847;48.218;16.414;2023-07-31T19:19:13;24.80;99.90
39103;DHT22;24847;48.218;16.414;2023-07-31T19:24:19;24.70;99.90
39103;DHT22;24847;48.218;16.414;2023-07-31T19:29:24;24.80;99.90
39103;DHT22;24847;48.218;16.414;2023-07-31T19:34:27;24.70;99.90
39103;DHT22;24847;48.218;16.414;2023-07-31T19:39:32;24.70;99.90
39103;DHT22;24847;48.218;16.414;2023-07-31T19:44:36;24.80;99.90
39103;DHT22;24847;48.218;16.414;2023-07-31T19:49:38;24.60;99.90
39103;DHT22;24847;48.218;16.414;2023-07-31T19:54:44;24.70;99.90
39103;DHT22;24847;48.218;16.414;2023-07-31T19:59:46;24.70;99.90
39103;DHT22;24847;48.218;16.414;2023-07-31T20:04:49;24.40;99.90
39103;DHT22;24847;48.218;16.414;2023-07-31T20:09:54;24.20;99.90
39103;DHT22;24847;48.218;16.414;2023-07-31T20:15:00;24.20;99.90
39103;DHT22;24847;48.218;16.414;2023-07-31T20:20:06;24.40;99.90
39103;DHT22;24847;48.218;16.414;2023-07-31T20:25:11;24.30;99.90
39103;DHT22;24847;48.218;16.414;2023-07-31T20:30:16;24.30;99.90
39103;DHT22;24847;48.218;16.414;2023-07-31T20:35:20;24.30;99.90
39103;DHT22;24847;48.218;16.414;2023-07-31T20:40:25;24.30;99.90
39103;DHT22;24847;48.218;16.414;2023-07-31T20:45:29;24.10;99.90
39103;DHT22;24847;48.218;16.414;2023-07-31T20:55:41;23.50;99.90
39103;DHT22;24847;48.218;16.414;2023-07-31T21:00:44;23.30;99.90
39103;DHT22;24847;48.218;16.414;2023-07-31T21:05:50;23.30;99.90
39103;DHT22;24847;48.218;16.414;2023-07-31T21:10:54;23.20;99.90
39103;DHT22;24847;48.218;16.414;2023-07-31T21:15:57;23.20;99.90
39103;DHT22;24847;48.218;16.414;2023-07-31T21:21:00;23.30;99.90
39103;DHT22;24847;48.218;16.414;2023-07-31T21:26:03;23.70;99.90
39103;DHT22;24847;48.218;16.414;2023-07-31T21:31:09;23.70;99.90
39103;DHT22;24847;48.218;16.414;2023-07-31T21:36:13;23.60;99.90
39103;DHT22;24847;48.218;16.414;2023-07-31T21:41:17;23.00;99.90
39103;DHT22;24847;48.218;16.414;2023-07-31T21:46:19;23.00;99.90
39103;DHT22;24847;48.218;16.414;2023-07-31T21:51:21;23.00;99.90
39103;DHT22;24847;48.218;16.414;2023-07-31T21:56:25;23.40;99.90
39103;DHT22;24847;48.218;16.414;2023-07-31T22:01:28;23.60;99.90
39103;DHT22;24847;48.218;16.414;2023-07-31T22:06:30;23.00;99.90
39103;DHT22;24847;48.218;16.414;2023-07-31T22:11:33;22.70;99.90
39103;DHT22;24847;48.218;16.414;2023-07-31T22:16:36;22.30;99.90
39103;DHT22;24847;48.218;16.414;2023-07-31T22:21:38;22.20;99.90
39103;DHT22;24847;48.218;16.414;2023-07-31T22:26:42;22.00;99.90
39103;DHT22;24847;48.218;16.414;2023-07-31T22:31:44;22.60;99.90
39103;DHT22;24847;48.218;16.414;2023-07-31T22:36:46;22.80;99.90
39103;DHT22;24847;48.218;16.414;2023-07-31T22:41:50;23.00;99.90
39103;DHT22;24847;48.218;16.414;2023-07-31T22:46:52;22.60;99.90
39103;DHT22;24847;48.218;16.414;2023-07-31T22:51:54;22.50;99.90
39103;DHT22;24847;48.218;16.414;2023-07-31T22:56:58;22.70;99.90
39103;DHT22;24847;48.218;16.414;2023-07-31T23:02:00;22.30;99.90
39103;DHT22;24847;48.218;16.414;2023-07-31T23:07:03;22.80;99.90
39103;DHT22;24847;48.218;16.414;2023-07-31T23:12:07;23.00;99.90
39103;DHT22;24847;48.218;16.414;2023-07-31T23:17:09;22.30;99.90
39103;DHT22;24847;48.218;16.414;2023-07-31T23:22:11;21.80;99.90
39103;DHT22;24847;48.218;16.414;2023-07-31T23:27:15;22.30;99.90
39103;DHT22;24847;48.218;16.414;2023-07-31T23:32:17;22.60;99.90
39103;DHT22;24847;48.218;16.414;2023-07-31T23:37:20;22.40;99.90
39103;DHT22;24847;48.218;16.414;2023-07-31T23:42:23;21.90;99.90
39103;DHT22;24847;48.218;16.414;2023-07-31T23:47:26;21.60;99.90
39103;DHT22;24847;48.218;16.414;2023-07-31T23:52:28;21.40;99.90
39103;DHT22;24847;48.218;16.414;2023-07-31T23:57:33;22.10;99.90
